createdAt,value
2023-01-11T00:00:45.577Z,68.62
2023-01-11T00:01:45.379Z,69.02
2023-01-11T00:02:45.586Z,68.26
2023-01-11T00:03:45.347Z,68.07
2023-01-11T00:04:45.443Z,68.13
2023-01-11T00:05:45.338Z,68.73
2023-01-11T00:06:45.508Z,68.34
2023-01-11T00:07:45.295Z,68.00
2023-01-11T00:08:45.446Z,68.64
2023-01-11T00:09:45.254Z,68.00
2023-01-11T00:10:45.436Z,67.95
2023-01-11T00:11:45.253Z,67.76
2023-01-11T00:12:45.378Z,67.67
2023-01-11T00:13:45.244Z,67.80
2023-01-11T00:14:45.363Z,68.16
2023-01-11T00:15:45.200Z,68.79
2023-01-11T00:16:46.269Z,68.05
2023-01-11T00:17:45.273Z,67.46
2023-01-11T00:18:45.274Z,67.61
2023-01-11T00:19:45.129Z,67.35
2023-01-11T00:20:45.271Z,67.13
2023-01-11T00:21:45.116Z,67.48
2023-01-11T00:22:45.146Z,67.93
2023-01-11T00:23:45.086Z,67.96
2023-01-11T00:24:45.183Z,67.71
2023-01-11T00:25:45.066Z,67.76
2023-01-11T00:26:45.164Z,67.89
2023-01-11T00:27:45.032Z,68.26
2023-01-11T00:28:47.244Z,67.78
2023-01-11T00:29:45.005Z,67.54
2023-01-11T00:30:45.194Z,67.48
2023-01-11T00:31:44.984Z,67.60
2023-01-11T00:32:46.093Z,67.86
2023-01-11T00:33:44.934Z,68.11
2023-01-11T00:34:47.045Z,67.53
2023-01-11T00:35:44.942Z,67.19
2023-01-11T00:36:45.098Z,67.17
2023-01-11T00:37:44.906Z,67.06
2023-01-11T00:38:45.080Z,66.94
2023-01-11T00:39:44.878Z,66.92
2023-01-11T00:40:44.952Z,67.06
2023-01-11T00:41:44.832Z,67.34
2023-01-11T00:42:44.891Z,67.48
2023-01-11T00:43:44.823Z,67.15
2023-01-11T00:44:44.983Z,67.62
2023-01-11T00:45:44.801Z,68.01
2023-01-11T00:47:06.822Z,68.53
2023-01-11T00:47:44.787Z,68.10
2023-01-11T00:48:44.901Z,67.82
2023-01-11T00:49:44.748Z,67.65
2023-01-11T00:50:44.791Z,67.71
2023-01-11T00:51:44.725Z,67.68
2023-01-11T00:52:44.781Z,67.73
2023-01-11T00:53:44.691Z,67.70
2023-01-11T00:54:44.810Z,67.60
2023-01-11T00:55:44.669Z,67.48
2023-01-11T00:56:45.834Z,67.63
2023-01-11T00:57:44.648Z,67.78
2023-01-11T00:58:44.782Z,67.89
2023-01-11T00:59:44.611Z,68.07
2023-01-11T01:00:44.725Z,68.37
2023-01-11T01:01:44.656Z,68.34
2023-01-11T01:02:52.393Z,68.83
2023-01-11T01:03:44.561Z,69.25
2023-01-11T01:04:44.683Z,69.16
2023-01-11T01:05:44.531Z,69.33
2023-01-11T01:06:44.763Z,69.57
2023-01-11T01:07:44.511Z,69.45
2023-01-11T01:08:44.613Z,69.49
2023-01-11T01:09:44.489Z,69.44
2023-01-11T01:10:44.590Z,69.74
2023-01-11T01:11:44.455Z,70.18
2023-01-11T01:13:05.515Z,70.57
2023-01-11T01:13:44.430Z,70.60
2023-01-11T01:14:45.538Z,70.85
2023-01-11T01:15:44.447Z,70.98
2023-01-11T01:16:44.618Z,71.20
2023-01-11T01:17:44.371Z,70.97
2023-01-11T01:18:44.430Z,71.07
2023-01-11T01:19:44.349Z,70.76
2023-01-11T01:20:44.413Z,70.66
2023-01-11T01:21:44.328Z,70.34
2023-01-11T01:22:44.400Z,70.37
2023-01-11T01:23:44.302Z,70.42
2023-01-11T01:24:44.439Z,70.46
2023-01-11T01:25:44.268Z,70.23
2023-01-11T01:26:44.428Z,70.50
2023-01-11T01:27:44.248Z,70.61
2023-01-11T01:28:44.308Z,70.54
2023-01-11T01:29:44.219Z,70.68
2023-01-11T01:30:44.342Z,70.54
2023-01-11T01:31:44.198Z,70.61
2023-01-11T01:32:44.336Z,70.82
2023-01-11T01:33:44.176Z,70.86
2023-01-11T01:34:44.315Z,70.93
2023-01-11T01:35:44.148Z,70.82
2023-01-11T01:37:05.328Z,70.81
2023-01-11T01:37:44.117Z,70.70
2023-01-11T01:38:44.236Z,70.65
2023-01-11T01:39:44.091Z,70.92
2023-01-11T01:40:44.223Z,71.28
2023-01-11T01:41:44.060Z,71.48
2023-01-11T01:43:53.540Z,71.46
2023-01-11T01:44:53.343Z,71.47
2023-01-11T01:45:53.470Z,71.68
2023-01-11T01:46:53.300Z,71.76
2023-01-11T01:49:02.680Z,71.72
2023-01-11T01:50:02.622Z,71.73
2023-01-11T01:51:02.719Z,71.87
2023-01-11T01:52:02.553Z,71.99
2023-01-11T01:53:02.668Z,71.93
2023-01-11T01:54:02.523Z,72.04
2023-01-11T01:55:02.638Z,72.39
2023-01-11T01:56:02.505Z,72.64
2023-01-11T01:57:02.521Z,72.78
2023-01-11T01:58:02.466Z,72.63
2023-01-11T01:59:02.569Z,72.80
2023-01-11T02:00:02.517Z,72.89
2023-01-11T02:01:02.551Z,72.77
2023-01-11T02:02:02.497Z,72.71
2023-01-11T02:03:02.596Z,73.33
2023-01-11T02:04:02.396Z,73.55
2023-01-11T02:05:23.537Z,73.62
2023-01-11T02:06:02.370Z,73.36
2023-01-11T02:07:02.455Z,73.59
2023-01-11T02:08:02.346Z,73.26
2023-01-11T02:09:02.427Z,73.23
2023-01-11T02:10:02.315Z,72.98
2023-01-11T02:11:02.486Z,72.98
2023-01-11T02:12:06.628Z,73.01
2023-01-11T02:13:02.311Z,73.42
2023-01-11T02:14:02.370Z,73.72
2023-01-11T02:15:02.255Z,73.72
2023-01-11T02:16:02.450Z,73.80
2023-01-11T02:17:02.225Z,73.73
2023-01-11T02:18:02.352Z,73.67
2023-01-11T02:19:02.228Z,73.61
2023-01-11T02:20:02.389Z,73.40
2023-01-11T02:21:02.180Z,73.06
2023-01-11T02:22:02.355Z,72.58
2023-01-11T02:23:02.196Z,72.68
2023-01-11T02:24:02.265Z,72.28
2023-01-11T02:25:02.136Z,72.35
2023-01-11T02:26:04.283Z,72.71
2023-01-11T02:27:02.097Z,72.85
2023-01-11T02:28:03.254Z,72.96
2023-01-11T02:29:02.074Z,72.86
2023-01-11T02:30:02.159Z,73.00
2023-01-11T02:31:02.096Z,73.11
2023-01-11T02:32:02.194Z,73.33
2023-01-11T02:33:02.016Z,73.51
2023-01-11T02:35:11.441Z,74.01
2023-01-11T02:36:11.285Z,74.04
2023-01-11T02:37:11.335Z,74.05
2023-01-11T02:38:11.243Z,74.18
2023-01-11T02:39:13.363Z,73.98
2023-01-11T02:40:11.223Z,74.12
2023-01-11T02:41:11.323Z,74.16
2023-01-11T02:42:11.213Z,74.53
2023-01-11T02:43:12.261Z,74.17
2023-01-11T02:44:11.161Z,74.23
2023-01-11T02:45:11.279Z,74.53
2023-01-11T02:46:11.159Z,74.61
2023-01-11T02:47:11.215Z,74.68
2023-01-11T02:48:11.131Z,75.05
2023-01-11T02:49:11.251Z,75.24
2023-01-11T02:50:11.089Z,75.54
2023-01-11T02:51:11.292Z,75.87
2023-01-11T02:52:11.062Z,75.85
2023-01-11T02:53:11.133Z,76.18
2023-01-11T02:54:11.062Z,76.37
2023-01-11T02:55:13.162Z,76.50
2023-01-11T02:56:14.387Z,76.23
2023-01-11T02:57:11.118Z,76.91
2023-01-11T02:58:10.992Z,77.74
2023-01-11T02:59:11.134Z,78.02
2023-01-11T03:00:10.988Z,78.16
2023-01-11T03:01:11.175Z,77.65
2023-01-11T03:02:10.931Z,77.53
2023-01-11T03:03:11.059Z,77.52
2023-01-11T03:04:10.901Z,77.46
2023-01-11T03:05:11.032Z,77.43
2023-01-11T03:06:10.899Z,77.33
2023-01-11T03:07:10.970Z,77.46
2023-01-11T03:08:10.855Z,77.50
2023-01-11T03:09:11.019Z,77.23
2023-01-11T03:10:10.841Z,77.61
2023-01-11T03:11:10.960Z,77.64
2023-01-11T03:12:10.831Z,77.97
2023-01-11T03:13:11.899Z,77.99
2023-01-11T03:14:10.770Z,77.99
2023-01-11T03:15:10.909Z,78.47
2023-01-11T03:16:10.830Z,78.42
2023-01-11T03:17:10.842Z,78.69
2023-01-11T03:18:10.748Z,78.93
2023-01-11T03:19:10.882Z,79.05
2023-01-11T03:20:10.703Z,79.09
2023-01-11T03:21:10.804Z,78.87
2023-01-11T03:22:10.677Z,78.82
2023-01-11T03:23:12.808Z,78.85
2023-01-11T03:24:10.667Z,79.30
2023-01-11T03:25:10.787Z,79.25
2023-01-11T03:26:10.636Z,79.32
2023-01-11T03:27:10.723Z,79.43
2023-01-11T03:28:10.597Z,79.54
2023-01-11T03:29:12.857Z,79.50
2023-01-11T03:30:10.599Z,79.50
2023-01-11T03:31:10.715Z,79.62
2023-01-11T03:32:10.545Z,79.63
2023-01-11T03:33:10.617Z,79.56
2023-01-11T03:34:10.520Z,79.69
2023-01-11T03:35:12.658Z,79.69
2023-01-11T03:36:10.520Z,79.88
2023-01-11T03:37:10.600Z,79.90
2023-01-11T03:38:10.460Z,79.89
2023-01-11T03:39:31.690Z,79.71
2023-01-11T03:40:10.444Z,79.74
2023-01-11T03:41:31.496Z,79.74
2023-01-11T03:42:10.422Z,79.69
2023-01-11T03:43:10.503Z,79.57
2023-01-11T03:44:10.387Z,79.75
2023-01-11T03:45:10.546Z,79.93
2023-01-11T03:46:10.367Z,80.21
2023-01-11T03:47:10.523Z,80.35
2023-01-11T03:48:10.333Z,80.26
2023-01-11T03:49:10.408Z,80.31
2023-01-11T03:50:10.312Z,80.64
2023-01-11T03:51:10.444Z,80.83
2023-01-11T03:52:10.285Z,81.07
2023-01-11T03:53:10.487Z,81.14
2023-01-11T03:54:10.254Z,81.31
2023-01-11T03:55:10.476Z,81.58
2023-01-11T03:56:10.233Z,81.47
2023-01-11T03:57:10.242Z,81.28
2023-01-11T03:58:10.202Z,81.42
2023-01-11T03:59:10.331Z,81.30
2023-01-11T04:00:10.183Z,81.29
2023-01-11T04:01:10.381Z,81.27
2023-01-11T04:02:10.157Z,81.23
2023-01-11T04:03:33.329Z,81.43
2023-01-11T04:04:10.169Z,81.31
2023-01-11T04:05:10.356Z,80.64
2023-01-11T04:06:10.102Z,80.46
2023-01-11T04:07:10.222Z,80.47
2023-01-11T04:08:10.073Z,80.91
2023-01-11T04:09:33.232Z,80.73
2023-01-11T04:10:10.056Z,80.42
2023-01-11T04:11:10.096Z,79.99
2023-01-11T04:12:10.053Z,79.53
2023-01-11T04:13:10.131Z,79.32
2023-01-11T04:14:10.012Z,79.14
2023-01-11T04:15:11.190Z,78.89
2023-01-11T04:16:10.022Z,78.84
2023-01-11T04:17:10.063Z,78.76
2023-01-11T04:18:09.964Z,78.68
2023-01-11T04:19:10.052Z,78.34
2023-01-11T04:20:09.930Z,78.31
2023-01-11T04:21:10.077Z,78.26
2023-01-11T04:22:09.901Z,78.38
2023-01-11T04:23:10.069Z,78.25
2023-01-11T04:24:09.880Z,78.59
2023-01-11T04:25:09.948Z,78.55
2023-01-11T04:26:09.858Z,78.36
2023-01-11T04:27:09.980Z,78.29
2023-01-11T04:28:09.829Z,78.14
2023-01-11T04:29:09.997Z,78.36
2023-01-11T04:30:09.804Z,78.54
2023-01-11T04:31:09.966Z,78.28
2023-01-11T04:32:09.768Z,78.17
2023-01-11T04:33:10.906Z,78.44
2023-01-11T04:34:09.752Z,78.82
2023-01-11T04:35:09.867Z,78.94
2023-01-11T04:36:09.722Z,79.10
2023-01-11T04:37:09.863Z,79.33
2023-01-11T04:38:09.687Z,79.43
2023-01-11T04:40:18.459Z,79.80
2023-01-11T04:41:18.351Z,79.81
2023-01-11T04:42:19.445Z,80.10
2023-01-11T04:43:18.325Z,80.23
2023-01-11T04:44:18.429Z,80.47
2023-01-11T04:45:18.311Z,80.67
2023-01-11T04:46:19.436Z,80.66
2023-01-11T04:47:18.275Z,80.69
2023-01-11T04:48:18.398Z,80.92
2023-01-11T04:49:18.249Z,81.04
2023-01-11T04:50:18.382Z,81.00
2023-01-11T04:51:18.226Z,81.03
2023-01-11T04:52:20.371Z,81.14
2023-01-11T04:53:18.197Z,81.34
2023-01-11T04:54:18.314Z,81.70
2023-01-11T04:55:18.176Z,81.84
2023-01-11T04:56:18.346Z,82.21
2023-01-11T04:57:18.158Z,82.39
2023-01-11T04:58:19.267Z,82.35
2023-01-11T04:59:18.123Z,82.34
2023-01-11T05:00:18.207Z,82.21
2023-01-11T05:01:18.181Z,82.28
2023-01-11T05:02:18.244Z,82.32
2023-01-11T05:03:18.063Z,82.52
2023-01-11T05:04:19.287Z,82.52
2023-01-11T05:05:18.043Z,82.72
2023-01-11T05:06:18.214Z,83.09
2023-01-11T05:07:18.013Z,83.10
2023-01-11T05:08:18.043Z,83.01
2023-01-11T05:09:17.995Z,82.98
2023-01-11T05:10:21.313Z,83.08
2023-01-11T05:11:17.952Z,83.18
2023-01-11T05:12:18.113Z,83.04
2023-01-11T05:13:17.934Z,82.99
2023-01-11T05:14:18.053Z,83.36
2023-01-11T05:15:17.906Z,83.78
2023-01-11T05:16:19.007Z,83.41
2023-01-11T05:17:17.883Z,83.38
2023-01-11T05:18:17.927Z,84.34
2023-01-11T05:19:17.855Z,84.14
2023-01-11T05:20:17.966Z,83.24
2023-01-11T05:21:17.824Z,82.96
2023-01-11T05:22:20.001Z,82.94
2023-01-11T05:23:17.799Z,82.84
2023-01-11T05:24:17.931Z,82.63
2023-01-11T05:25:17.759Z,82.63
2023-01-11T05:26:17.863Z,82.57
2023-01-11T05:27:17.764Z,82.68
2023-01-11T05:28:17.848Z,82.81
2023-01-11T05:29:17.722Z,83.02
2023-01-11T05:30:17.830Z,82.93
2023-01-11T05:31:17.804Z,82.86
2023-01-11T05:32:17.880Z,83.07
2023-01-11T05:33:17.667Z,83.01
2023-01-11T05:34:18.886Z,83.24
2023-01-11T05:35:17.639Z,83.35
2023-01-11T05:36:17.739Z,83.31
2023-01-11T05:37:17.618Z,83.49
2023-01-11T05:38:17.668Z,83.58
2023-01-11T05:39:17.579Z,83.71
2023-01-11T05:40:20.937Z,83.75
2023-01-11T05:41:17.570Z,83.81
2023-01-11T05:42:17.759Z,83.88
2023-01-11T05:43:17.528Z,83.70
2023-01-11T05:44:17.681Z,83.89
2023-01-11T05:45:17.504Z,84.02
2023-01-11T05:46:17.576Z,83.86
2023-01-11T05:47:17.484Z,83.68
2023-01-11T05:48:17.557Z,83.73
2023-01-11T05:49:17.464Z,83.92
2023-01-11T05:50:17.588Z,83.87
2023-01-11T05:51:17.427Z,83.98
2023-01-11T05:52:20.865Z,84.12
2023-01-11T05:53:17.397Z,84.44
2023-01-11T05:54:17.458Z,84.57
2023-01-11T05:55:17.403Z,84.77
2023-01-11T05:56:17.502Z,84.63
2023-01-11T05:57:17.346Z,84.74
2023-01-11T05:58:17.482Z,84.67
2023-01-11T05:59:17.332Z,84.57
2023-01-11T06:00:17.526Z,84.53
2023-01-11T06:01:17.290Z,84.81
2023-01-11T06:02:17.418Z,85.11
2023-01-11T06:03:17.329Z,85.52
2023-01-11T06:04:17.393Z,85.48
2023-01-11T06:05:17.243Z,85.01
2023-01-11T06:06:18.397Z,84.91
2023-01-11T06:07:17.224Z,84.83
2023-01-11T06:08:17.305Z,84.47
2023-01-11T06:09:17.192Z,84.06
2023-01-11T06:10:18.311Z,83.61
2023-01-11T06:11:17.161Z,83.29
2023-01-11T06:12:17.283Z,82.18
2023-01-11T06:13:17.152Z,82.73
2023-01-11T06:14:19.269Z,82.05
2023-01-11T06:15:17.113Z,81.88
2023-01-11T06:16:17.261Z,81.89
2023-01-11T06:17:17.094Z,82.01
2023-01-11T06:18:17.802Z,82.18
2023-01-11T06:19:17.065Z,82.30
2023-01-11T06:20:17.212Z,82.61
2023-01-11T06:21:17.065Z,82.46
2023-01-11T06:22:17.101Z,82.93
2023-01-11T06:23:17.013Z,83.07
2023-01-11T06:24:17.091Z,83.14
2023-01-11T06:25:16.987Z,83.32
2023-01-11T06:26:17.136Z,83.30
2023-01-11T06:27:16.964Z,83.40
2023-01-11T06:28:17.110Z,83.38
2023-01-11T06:29:16.947Z,83.83
2023-01-11T06:30:17.034Z,83.88
2023-01-11T06:31:17.876Z,84.12
2023-01-11T06:32:17.957Z,84.10
2023-01-11T06:33:16.882Z,84.08
2023-01-11T06:34:17.020Z,84.21
2023-01-11T06:35:16.857Z,84.07
2023-01-11T06:36:16.992Z,84.15
2023-01-11T06:37:16.822Z,84.29
2023-01-11T06:38:16.931Z,84.31
2023-01-11T06:39:16.802Z,84.45
2023-01-11T06:40:16.920Z,84.57
2023-01-11T06:41:16.765Z,84.58
2023-01-11T06:42:16.878Z,84.54
2023-01-11T06:43:16.749Z,84.58
2023-01-11T06:44:16.841Z,84.73
2023-01-11T06:45:16.746Z,84.88
2023-01-11T06:46:16.939Z,85.29
2023-01-11T06:47:16.703Z,85.58
2023-01-11T06:48:16.820Z,85.47
2023-01-11T06:49:16.731Z,84.82
2023-01-11T06:50:16.755Z,84.90
2023-01-11T06:51:16.657Z,85.03
2023-01-11T06:52:16.737Z,85.01
2023-01-11T06:53:16.664Z,84.83
2023-01-11T06:54:17.744Z,84.87
2023-01-11T06:55:16.617Z,84.97
2023-01-11T06:56:16.755Z,84.93
2023-01-11T06:57:16.561Z,85.13
2023-01-11T06:58:16.636Z,85.20
2023-01-11T06:59:16.528Z,85.31
2023-01-11T07:00:37.579Z,85.06
2023-01-11T07:01:16.583Z,84.73
2023-01-11T07:02:16.680Z,84.53
2023-01-11T07:03:16.494Z,84.52
2023-01-11T07:04:16.645Z,84.78
2023-01-11T07:05:18.856Z,84.73
2023-01-11T07:06:16.632Z,84.82
2023-01-11T07:07:16.424Z,84.90
2023-01-11T07:08:16.484Z,85.11
2023-01-11T07:09:16.405Z,85.13
2023-01-11T07:10:16.556Z,85.52
2023-01-11T07:11:16.428Z,85.32
2023-01-11T07:12:17.500Z,85.06
2023-01-11T07:13:16.366Z,84.88
2023-01-11T07:14:16.465Z,85.22
2023-01-11T07:15:16.324Z,85.43
2023-01-11T07:16:16.520Z,85.41
2023-01-11T07:17:16.301Z,85.31
2023-01-11T07:18:16.337Z,85.44
2023-01-11T07:19:16.272Z,85.64
2023-01-11T07:20:37.352Z,85.73
2023-01-11T07:21:16.233Z,85.51
2023-01-11T07:22:19.531Z,85.47
2023-01-11T07:23:16.216Z,85.44
2023-01-11T07:24:16.342Z,85.25
2023-01-11T07:25:16.212Z,85.27
2023-01-11T07:26:16.295Z,85.52
2023-01-11T07:27:16.200Z,85.59
2023-01-11T07:28:16.216Z,85.30
2023-01-11T07:29:16.170Z,85.07
2023-01-11T07:30:16.251Z,85.05
2023-01-11T07:31:16.136Z,85.19
2023-01-11T07:32:16.288Z,85.39
2023-01-11T07:33:16.118Z,85.49
2023-01-11T07:34:16.229Z,85.49
2023-01-11T07:35:16.070Z,85.75
2023-01-11T07:36:16.158Z,85.71
2023-01-11T07:37:28.909Z,85.65
2023-01-11T07:38:17.105Z,85.61
2023-01-11T07:39:16.158Z,85.46
2023-01-11T07:40:16.006Z,85.57
2023-01-11T07:41:16.098Z,85.59
2023-01-11T07:42:15.970Z,85.66
2023-01-11T07:43:16.042Z,85.72
2023-01-11T07:44:15.962Z,85.73
2023-01-11T07:45:16.088Z,85.75
2023-01-11T07:46:16.008Z,85.81
2023-01-11T07:47:16.108Z,85.72
2023-01-11T07:48:15.901Z,85.89
2023-01-11T07:49:15.934Z,85.80
2023-01-11T07:50:15.866Z,86.24
2023-01-11T07:51:37.985Z,86.29
2023-01-11T07:52:15.837Z,86.50
2023-01-11T07:53:15.916Z,86.64
2023-01-11T07:54:15.832Z,86.30
2023-01-11T07:55:17.074Z,85.98
2023-01-11T07:56:15.803Z,85.70
2023-01-11T07:57:15.978Z,85.74
2023-01-11T07:58:15.787Z,85.86
2023-01-11T07:59:15.769Z,85.64
2023-01-11T08:00:15.905Z,85.55
2023-01-11T08:01:15.716Z,85.61
2023-01-11T08:02:15.992Z,85.96
2023-01-11T08:03:15.760Z,86.01
2023-01-11T08:04:15.748Z,85.89
2023-01-11T08:05:15.667Z,85.68
2023-01-11T08:06:15.800Z,85.57
2023-01-11T08:07:15.635Z,85.56
2023-01-11T08:08:15.798Z,85.60
2023-01-11T08:09:15.618Z,85.67
2023-01-11T08:10:16.797Z,85.74
2023-01-11T08:11:15.587Z,85.83
2023-01-11T08:12:15.693Z,85.80
2023-01-11T08:13:15.566Z,85.67
2023-01-11T08:14:16.705Z,85.68
2023-01-11T08:15:15.534Z,85.96
2023-01-11T08:16:16.750Z,86.16
2023-01-11T08:17:15.527Z,86.36
2023-01-11T08:18:15.536Z,86.11
2023-01-11T08:19:15.505Z,85.77
2023-01-11T08:20:15.498Z,85.77
2023-01-11T08:21:16.658Z,86.08
2023-01-11T08:22:15.467Z,86.28
2023-01-11T08:23:15.685Z,86.73
2023-01-11T08:24:15.429Z,86.90
2023-01-11T08:25:15.574Z,86.64
2023-01-11T08:26:15.414Z,86.02
2023-01-11T08:27:16.437Z,85.92
2023-01-11T08:28:15.401Z,84.97
2023-01-11T08:29:15.451Z,84.91
2023-01-11T08:30:15.391Z,84.33
2023-01-11T08:31:15.544Z,83.85
2023-01-11T08:32:15.480Z,84.04
2023-01-11T08:33:16.431Z,83.96
2023-01-11T08:34:15.290Z,84.13
2023-01-11T08:35:15.350Z,84.16
2023-01-11T08:36:15.260Z,84.48
2023-01-11T08:37:15.381Z,83.92
2023-01-11T08:38:15.262Z,84.05
2023-01-11T08:39:17.411Z,84.25
2023-01-11T08:40:15.203Z,84.68
2023-01-11T08:41:15.367Z,84.75
2023-01-11T08:42:15.185Z,85.10
2023-01-11T08:43:15.310Z,84.99
2023-01-11T08:44:19.387Z,84.56
2023-01-11T08:45:16.141Z,84.33
2023-01-11T08:46:15.341Z,84.57
2023-01-11T08:47:15.121Z,84.40
2023-01-11T08:48:15.234Z,84.54
2023-01-11T08:49:15.089Z,84.48
2023-01-11T08:50:16.157Z,84.57
2023-01-11T08:51:15.059Z,84.46
2023-01-11T08:52:15.206Z,84.13
2023-01-11T08:53:15.037Z,83.07
2023-01-11T08:54:15.134Z,82.55
2023-01-11T08:55:15.025Z,82.46
2023-01-11T08:56:15.131Z,82.36
2023-01-11T08:57:14.987Z,82.15
2023-01-11T08:58:15.019Z,81.95
2023-01-11T08:59:14.954Z,81.50
2023-01-11T09:00:15.052Z,81.73
2023-01-11T09:01:14.998Z,81.97
2023-01-11T09:02:15.018Z,81.35
2023-01-11T09:03:14.966Z,80.91
2023-01-11T09:04:24.775Z,80.35
2023-01-11T09:05:18.187Z,80.51
2023-01-11T09:06:15.048Z,80.01
2023-01-11T09:07:14.848Z,79.66
2023-01-11T09:08:14.926Z,79.50
2023-01-11T09:09:14.992Z,79.30
2023-01-11T09:10:14.935Z,78.83
2023-01-11T09:11:14.800Z,79.03
2023-01-11T09:12:14.951Z,78.88
2023-01-11T09:13:14.757Z,78.69
2023-01-11T09:14:16.885Z,78.73
2023-01-11T09:15:14.729Z,78.01
2023-01-11T09:16:18.672Z,77.16
2023-01-11T09:17:14.724Z,76.99
2023-01-11T09:18:14.755Z,76.67
2023-01-11T09:19:14.685Z,77.20
2023-01-11T09:20:16.819Z,77.26
2023-01-11T09:21:14.656Z,76.96
2023-01-11T09:22:14.766Z,76.51
2023-01-11T09:23:14.647Z,76.53
2023-01-11T09:24:14.667Z,76.57
2023-01-11T09:25:14.616Z,76.58
2023-01-11T09:26:14.749Z,76.69
2023-01-11T09:27:14.629Z,77.31
2023-01-11T09:28:35.603Z,78.10
2023-01-11T09:29:14.598Z,78.29
2023-01-11T09:30:14.672Z,78.47
2023-01-11T09:31:14.581Z,78.65
2023-01-11T09:32:14.664Z,78.37
2023-01-11T09:33:14.512Z,78.49
2023-01-11T09:34:14.654Z,78.98
2023-01-11T09:35:14.482Z,78.93
2023-01-11T09:36:14.581Z,79.09
2023-01-11T09:37:14.473Z,79.30
2023-01-11T09:38:17.731Z,79.71
2023-01-11T09:39:14.434Z,79.96
2023-01-11T09:40:14.542Z,80.04
2023-01-11T09:41:14.402Z,80.31
2023-01-11T09:42:14.601Z,80.14
2023-01-11T09:43:14.373Z,79.07
2023-01-11T09:44:14.468Z,78.22
2023-01-11T09:45:14.363Z,76.87
2023-01-11T09:46:14.497Z,76.51
2023-01-11T09:47:14.312Z,75.81
2023-01-11T09:48:14.397Z,75.47
2023-01-11T09:49:14.301Z,75.54
2023-01-11T09:50:16.523Z,75.45
2023-01-11T09:51:14.271Z,75.35
2023-01-11T09:52:14.470Z,75.22
2023-01-11T09:53:15.346Z,75.02
2023-01-11T09:54:14.295Z,76.46
2023-01-11T09:55:14.227Z,76.32
2023-01-11T09:56:14.393Z,75.40
2023-01-11T09:57:14.199Z,74.83
2023-01-11T09:58:14.260Z,74.88
2023-01-11T09:59:14.175Z,75.42
2023-01-11T10:00:14.423Z,74.50
2023-01-11T10:01:14.235Z,74.48
2023-01-11T10:02:16.321Z,74.72
2023-01-11T10:03:14.109Z,74.40
2023-01-11T10:04:14.179Z,74.24
2023-01-11T10:05:14.187Z,73.60
2023-01-11T10:06:14.246Z,73.12
2023-01-11T10:07:14.072Z,72.96
2023-01-11T10:18:22.291Z,73.24
2023-01-11T10:18:26.562Z,72.64
2023-01-11T10:18:27.585Z,72.76
2023-01-11T10:18:32.543Z,73.17
2023-01-11T10:18:33.348Z,73.23
2023-01-11T10:19:35.032Z,73.31
2023-01-11T10:20:15.156Z,73.10
2023-01-11T10:21:13.877Z,72.56
2023-01-11T10:22:13.968Z,72.08
2023-01-11T10:23:13.850Z,72.76
2023-01-11T10:24:13.919Z,72.04
2023-01-11T10:25:13.849Z,71.97
2023-01-11T10:26:14.991Z,71.51
2023-01-11T10:27:13.840Z,71.32
2023-01-11T10:28:13.904Z,71.12
2023-01-11T10:29:13.769Z,71.12
2023-01-11T10:30:13.948Z,71.32
2023-01-11T10:31:13.807Z,71.73
2023-01-11T10:32:35.761Z,71.29
2023-01-11T10:33:13.736Z,71.36
2023-01-11T10:34:13.837Z,71.37
2023-01-11T10:35:13.703Z,70.79
2023-01-11T10:36:13.826Z,70.38
2023-01-11T10:37:13.680Z,70.45
2023-01-11T10:38:13.783Z,70.21
2023-01-11T10:39:13.640Z,70.27
2023-01-11T10:40:13.704Z,69.62
2023-01-11T10:41:13.615Z,69.51
2023-01-11T10:42:13.717Z,69.49
2023-01-11T10:43:13.600Z,69.05
2023-01-11T10:44:13.669Z,69.06
2023-01-11T10:45:13.556Z,68.59
2023-01-11T10:46:13.707Z,68.04
2023-01-11T10:47:13.534Z,68.21
2023-01-11T10:48:13.647Z,68.04
2023-01-11T10:49:13.518Z,68.05
2023-01-11T10:50:13.576Z,67.87
2023-01-11T10:51:13.496Z,67.60
2023-01-11T10:52:13.746Z,67.73
2023-01-11T10:53:13.457Z,68.01
2023-01-11T10:54:14.824Z,68.26
2023-01-11T10:55:13.449Z,68.83
2023-01-11T10:56:13.593Z,69.70
2023-01-11T10:57:13.444Z,68.43
2023-01-11T10:58:13.419Z,68.77
2023-01-11T10:59:13.379Z,67.91
2023-01-11T11:00:36.628Z,67.93
2023-01-11T11:01:13.384Z,67.95
2023-01-11T11:02:13.520Z,67.90
2023-01-11T11:03:13.315Z,66.77
2023-01-11T11:04:13.424Z,66.33
2023-01-11T11:05:13.291Z,66.61
2023-01-11T11:06:13.413Z,66.19
2023-01-11T11:07:13.273Z,65.85
2023-01-11T11:08:14.740Z,66.41
2023-01-11T11:09:13.244Z,66.60
2023-01-11T11:10:13.296Z,66.63
2023-01-11T11:11:13.212Z,66.09
2023-01-11T11:12:13.319Z,65.92
2023-01-11T11:13:13.183Z,65.96
2023-01-11T11:14:13.294Z,66.68
2023-01-11T11:15:13.154Z,66.61
2023-01-11T11:16:13.383Z,66.29
2023-01-11T11:17:13.151Z,65.91
2023-01-11T11:18:16.398Z,66.75
2023-01-11T11:19:13.104Z,66.36
2023-01-11T11:20:13.207Z,66.68
2023-01-11T11:21:13.064Z,66.97
2023-01-11T11:22:13.251Z,66.97
2023-01-11T11:23:13.043Z,66.87
2023-01-11T11:24:13.361Z,66.68
2023-01-11T11:25:13.023Z,66.57
2023-01-11T11:26:13.111Z,66.11
2023-01-11T11:27:13.087Z,65.85
2023-01-11T11:28:13.153Z,66.26
2023-01-11T11:29:12.974Z,67.05
2023-01-11T11:30:14.078Z,66.92
2023-01-11T11:31:12.985Z,66.32
2023-01-11T11:32:13.121Z,65.49
2023-01-11T11:33:12.913Z,65.89
2023-01-11T11:34:13.063Z,65.95
2023-01-11T11:35:12.883Z,67.65
2023-01-11T11:36:12.942Z,67.34
2023-01-11T11:37:13.622Z,66.39
2023-01-11T11:38:12.921Z,66.04
2023-01-11T11:39:12.833Z,66.86
2023-01-11T11:40:12.952Z,65.99
2023-01-11T11:41:12.806Z,66.65
2023-01-11T11:42:15.022Z,67.54
2023-01-11T11:43:12.802Z,67.77
2023-01-11T11:44:12.824Z,68.06
2023-01-11T11:45:12.753Z,68.76
2023-01-11T11:46:15.600Z,68.57
2023-01-11T11:47:13.735Z,67.91
2023-01-11T11:48:14.896Z,67.46
2023-01-11T11:49:12.705Z,67.63
2023-01-11T11:50:12.840Z,67.39
2023-01-11T11:51:12.670Z,66.72
2023-01-11T11:52:12.873Z,66.43
2023-01-11T11:53:12.741Z,65.92
2023-01-11T11:54:12.752Z,66.11
2023-01-11T11:55:12.622Z,65.35
2023-01-11T11:56:12.740Z,65.32
2023-01-11T11:57:12.591Z,65.01
2023-01-11T11:58:12.673Z,65.05
2023-01-11T11:59:12.570Z,65.71
2023-01-11T12:00:13.702Z,65.17
2023-01-11T12:01:37.440Z,66.04
2023-01-11T12:02:12.590Z,65.21
2023-01-11T12:03:12.512Z,65.01
2023-01-11T12:04:14.670Z,65.16
2023-01-11T12:05:12.606Z,65.74
2023-01-11T12:06:12.670Z,65.79
2023-01-11T12:07:12.477Z,65.41
2023-01-11T12:08:12.551Z,65.42
2023-01-11T12:09:12.442Z,65.72
2023-01-11T12:10:12.589Z,65.63
2023-01-11T12:11:12.415Z,64.78
2023-01-11T12:12:12.470Z,64.78
2023-01-11T12:13:12.371Z,65.10
2023-01-11T12:14:34.454Z,65.23
2023-01-11T12:15:12.363Z,65.28
2023-01-11T12:16:34.535Z,65.59
2023-01-11T12:17:12.329Z,65.29
2023-01-11T12:18:14.763Z,65.59
2023-01-11T12:19:12.301Z,64.06
2023-01-11T12:20:12.468Z,64.00
2023-01-11T12:21:12.334Z,64.29
2023-01-11T12:22:12.290Z,64.22
2023-01-11T12:23:12.246Z,63.45
2023-01-11T12:24:12.395Z,64.08
2023-01-11T12:25:12.218Z,63.85
2023-01-11T12:26:12.368Z,66.15
2023-01-11T12:27:12.245Z,67.18
2023-01-11T12:28:12.299Z,64.08
2023-01-11T12:29:12.250Z,63.41
2023-01-11T12:30:12.389Z,63.70
2023-01-11T12:31:12.206Z,64.70
2023-01-11T12:32:33.255Z,64.43
2023-01-11T12:33:12.117Z,63.87
2023-01-11T12:34:12.214Z,61.43
2023-01-11T12:35:12.087Z,61.14
2023-01-11T12:36:12.188Z,61.23
2023-01-11T12:37:12.060Z,61.71
2023-01-11T12:38:13.218Z,63.24
2023-01-11T12:39:12.049Z,63.20
2023-01-11T12:40:12.106Z,61.75
2023-01-11T12:41:11.999Z,62.27
2023-01-11T12:42:12.104Z,61.01
2023-01-11T12:43:11.982Z,61.42
2023-01-11T12:44:13.142Z,64.07
2023-01-11T12:45:11.998Z,62.79
2023-01-11T12:46:12.212Z,64.18
2023-01-11T12:47:11.928Z,62.77
2023-01-11T12:48:12.108Z,64.04
2023-01-11T12:49:11.905Z,62.28
2023-01-11T12:50:11.997Z,60.46
2023-01-11T12:51:11.887Z,61.90
2023-01-11T12:52:11.921Z,61.33
2023-01-11T12:53:11.851Z,61.52
2023-01-11T12:54:12.015Z,61.33
2023-01-11T12:55:11.839Z,61.02
2023-01-11T12:56:11.999Z,63.47
2023-01-11T12:57:11.798Z,62.43
2023-01-11T12:58:14.293Z,62.42
2023-01-11T12:59:11.767Z,61.50
2023-01-11T13:00:11.815Z,62.17
2023-01-11T13:01:11.804Z,61.83
2023-01-11T13:02:11.951Z,62.17
2023-01-11T13:03:11.745Z,63.28